Eaton, New York
Current Conditions -  °F | °C
As of 6:53 AM on Saturday 25 Oct 2014 (Local Time) from KRME Reporting Station
Overcast Overcast  
Wind Chill: 44°   Ceiling: 1200
Heat Index: 44°   Visibility: 10mi
Dew Point: 41°   Wind: 3mph
Humidity: 89%   Direction: 90°E
Pressure: 29.86"   Gusts: NA
Location:  42.85°N, 75.61°W
Report Text: KRME 251053Z AUTO 09003KT 10SM OVC012 07/05 A2986 RMK AO2 SLP112 T00670050
Loading
Personal Weather Stations






























Interactive Weather Map New forecast layout! Learn more

10-Day Weather Forecast

Advertisements
Track Severe Weather on mobile